sensor_id;sensor_type;location;lat;lon;timestamp;P1;durP1;ratioP1;P2;durP2;ratioP2
37931;SDS011;23758;42.640;23.302;2023-06-14T00:01:45;2.70;;;2.42;;
37931;SDS011;23758;42.640;23.302;2023-06-14T00:04:13;2.20;;;2.10;;
37931;SDS011;23758;42.640;23.302;2023-06-14T00:06:41;2.15;;;2.05;;
37931;SDS011;23758;42.640;23.302;2023-06-14T00:09:10;2.10;;;2.00;;
37931;SDS011;23758;42.640;23.302;2023-06-14T00:11:37;2.83;;;2.63;;
37931;SDS011;23758;42.640;23.302;2023-06-14T00:14:03;2.00;;;1.90;;
37931;SDS011;23758;42.640;23.302;2023-06-14T00:16:29;2.10;;;2.00;;
37931;SDS011;23758;42.640;23.302;2023-06-14T00:18:55;2.10;;;2.00;;
37931;SDS011;23758;42.640;23.302;2023-06-14T00:21:21;2.17;;;2.08;;
37931;SDS011;23758;42.640;23.302;2023-06-14T00:23:46;2.08;;;1.98;;
37931;SDS011;23758;42.640;23.302;2023-06-14T00:26:12;2.20;;;2.10;;
37931;SDS011;23758;42.640;23.302;2023-06-14T00:28:37;2.65;;;2.45;;
37931;SDS011;23758;42.640;23.302;2023-06-14T00:31:03;2.15;;;2.05;;
37931;SDS011;23758;42.640;23.302;2023-06-14T00:33:28;2.28;;;2.15;;
37931;SDS011;23758;42.640;23.302;2023-06-14T00:35:53;2.20;;;2.10;;
37931;SDS011;23758;42.640;23.302;2023-06-14T00:38:19;2.10;;;2.00;;
37931;SDS011;23758;42.640;23.302;2023-06-14T00:40:46;1.90;;;1.80;;
37931;SDS011;23758;42.640;23.302;2023-06-14T00:43:11;4.45;;;2.85;;
37931;SDS011;23758;42.640;23.302;2023-06-14T00:45:37;2.30;;;2.20;;
37931;SDS011;23758;42.640;23.302;2023-06-14T00:48:03;2.20;;;2.10;;
37931;SDS011;23758;42.640;23.302;2023-06-14T00:50:31;2.10;;;2.00;;
37931;SDS011;23758;42.640;23.302;2023-06-14T00:52:58;2.20;;;2.10;;
37931;SDS011;23758;42.640;23.302;2023-06-14T00:55:24;2.28;;;2.17;;
37931;SDS011;23758;42.640;23.302;2023-06-14T00:57:50;2.22;;;2.13;;
37931;SDS011;23758;42.640;23.302;2023-06-14T01:00:16;2.20;;;2.10;;
37931;SDS011;23758;42.640;23.302;2023-06-14T01:02:43;2.10;;;2.00;;
37931;SDS011;23758;42.640;23.302;2023-06-14T01:05:08;2.10;;;2.00;;
37931;SDS011;23758;42.640;23.302;2023-06-14T01:10:49;2.47;;;2.30;;
37931;SDS011;23758;42.640;23.302;2023-06-14T01:13:23;2.10;;;2.00;;
37931;SDS011;23758;42.640;23.302;2023-06-14T01:15:53;2.00;;;1.90;;
37931;SDS011;23758;42.640;23.302;2023-06-14T01:18:19;2.10;;;2.00;;
37931;SDS011;23758;42.640;23.302;2023-06-14T01:20:46;2.50;;;2.30;;
37931;SDS011;23758;42.640;23.302;2023-06-14T01:23:21;2.20;;;2.10;;
37931;SDS011;23758;42.640;23.302;2023-06-14T01:25:48;2.20;;;2.10;;
37931;SDS011;23758;42.640;23.302;2023-06-14T01:28:17;2.13;;;2.03;;
37931;SDS011;23758;42.640;23.302;2023-06-14T01:30:44;2.30;;;2.20;;
37931;SDS011;23758;42.640;23.302;2023-06-14T01:33:19;2.20;;;2.10;;
37931;SDS011;23758;42.640;23.302;2023-06-14T01:35:46;2.00;;;1.90;;
37931;SDS011;23758;42.640;23.302;2023-06-14T01:38:13;2.20;;;2.10;;
37931;SDS011;23758;42.640;23.302;2023-06-14T01:40:40;2.10;;;2.00;;
37931;SDS011;23758;42.640;23.302;2023-06-14T01:43:06;2.17;;;2.08;;
37931;SDS011;23758;42.640;23.302;2023-06-14T01:45:32;2.45;;;2.35;;
37931;SDS011;23758;42.640;23.302;2023-06-14T01:47:59;2.25;;;2.15;;
37931;SDS011;23758;42.640;23.302;2023-06-14T01:50:27;2.20;;;2.10;;
37931;SDS011;23758;42.640;23.302;2023-06-14T01:52:54;2.20;;;2.10;;
37931;SDS011;23758;42.640;23.302;2023-06-14T01:55:20;2.30;;;2.20;;
37931;SDS011;23758;42.640;23.302;2023-06-14T01:57:46;2.10;;;2.00;;
37931;SDS011;23758;42.640;23.302;2023-06-14T02:00:13;2.20;;;2.10;;
37931;SDS011;23758;42.640;23.302;2023-06-14T02:02:40;2.20;;;2.10;;
37931;SDS011;23758;42.640;23.302;2023-06-14T02:05:05;2.10;;;2.00;;
37931;SDS011;23758;42.640;23.302;2023-06-14T02:07:31;2.25;;;2.10;;
37931;SDS011;23758;42.640;23.302;2023-06-14T02:09:56;2.10;;;2.00;;
37931;SDS011;23758;42.640;23.302;2023-06-14T02:12:22;2.40;;;2.30;;
37931;SDS011;23758;42.640;23.302;2023-06-14T02:14:47;2.20;;;2.10;;
37931;SDS011;23758;42.640;23.302;2023-06-14T02:17:13;2.17;;;2.08;;
37931;SDS011;23758;42.640;23.302;2023-06-14T02:19:39;2.20;;;2.10;;
37931;SDS011;23758;42.640;23.302;2023-06-14T02:22:05;2.28;;;2.17;;
37931;SDS011;23758;42.640;23.302;2023-06-14T02:24:31;2.15;;;2.05;;
37931;SDS011;23758;42.640;23.302;2023-06-14T02:26:57;2.20;;;2.10;;
37931;SDS011;23758;42.640;23.302;2023-06-14T02:29:22;1.98;;;1.88;;
37931;SDS011;23758;42.640;23.302;2023-06-14T02:31:48;2.00;;;1.90;;
37931;SDS011;23758;42.640;23.302;2023-06-14T02:34:14;2.20;;;2.10;;
37931;SDS011;23758;42.640;23.302;2023-06-14T02:36:42;2.10;;;2.00;;
37931;SDS011;23758;42.640;23.302;2023-06-14T02:39:08;2.17;;;2.08;;
37931;SDS011;23758;42.640;23.302;2023-06-14T02:41:37;2.20;;;2.10;;
37931;SDS011;23758;42.640;23.302;2023-06-14T02:44:02;2.47;;;2.33;;
37931;SDS011;23758;42.640;23.302;2023-06-14T02:46:28;2.10;;;2.00;;
37931;SDS011;23758;42.640;23.302;2023-06-14T02:48:53;2.20;;;2.10;;
37931;SDS011;23758;42.640;23.302;2023-06-14T02:51:19;2.10;;;2.00;;
37931;SDS011;23758;42.640;23.302;2023-06-14T02:53:44;2.10;;;2.00;;
37931;SDS011;23758;42.640;23.302;2023-06-14T02:56:10;2.10;;;2.00;;
37931;SDS011;23758;42.640;23.302;2023-06-14T02:58:37;2.00;;;1.90;;
37931;SDS011;23758;42.640;23.302;2023-06-14T03:01:03;2.10;;;2.00;;
37931;SDS011;23758;42.640;23.302;2023-06-14T03:03:30;1.95;;;1.85;;
37931;SDS011;23758;42.640;23.302;2023-06-14T03:05:56;2.10;;;2.00;;
37931;SDS011;23758;42.640;23.302;2023-06-14T03:08:22;2.10;;;2.00;;
37931;SDS011;23758;42.640;23.302;2023-06-14T03:10:52;2.00;;;1.90;;
37931;SDS011;23758;42.640;23.302;2023-06-14T03:13:18;2.00;;;1.90;;
37931;SDS011;23758;42.640;23.302;2023-06-14T03:15:46;2.00;;;1.90;;
37931;SDS011;23758;42.640;23.302;2023-06-14T03:18:12;2.17;;;2.08;;
37931;SDS011;23758;42.640;23.302;2023-06-14T03:20:40;2.50;;;2.30;;
37931;SDS011;23758;42.640;23.302;2023-06-14T03:23:06;2.40;;;2.30;;
37931;SDS011;23758;42.640;23.302;2023-06-14T03:25:31;2.20;;;2.10;;
37931;SDS011;23758;42.640;23.302;2023-06-14T03:27:58;2.70;;;2.50;;
37931;SDS011;23758;42.640;23.302;2023-06-14T03:30:23;2.10;;;2.00;;
37931;SDS011;23758;42.640;23.302;2023-06-14T03:32:49;2.30;;;2.20;;
37931;SDS011;23758;42.640;23.302;2023-06-14T03:35:17;2.25;;;2.15;;
37931;SDS011;23758;42.640;23.302;2023-06-14T03:37:46;2.20;;;2.10;;
37931;SDS011;23758;42.640;23.302;2023-06-14T03:40:12;2.40;;;2.30;;
37931;SDS011;23758;42.640;23.302;2023-06-14T03:42:39;2.20;;;2.10;;
37931;SDS011;23758;42.640;23.302;2023-06-14T03:45:05;2.13;;;2.03;;
37931;SDS011;23758;42.640;23.302;2023-06-14T03:47:31;2.20;;;2.10;;
37931;SDS011;23758;42.640;23.302;2023-06-14T03:49:57;2.17;;;2.08;;
37931;SDS011;23758;42.640;23.302;2023-06-14T03:52:23;2.30;;;2.17;;
37931;SDS011;23758;42.640;23.302;2023-06-14T03:54:48;2.05;;;1.95;;
37931;SDS011;23758;42.640;23.302;2023-06-14T03:57:14;2.00;;;1.90;;
37931;SDS011;23758;42.640;23.302;2023-06-14T03:59:40;2.20;;;2.08;;
37931;SDS011;23758;42.640;23.302;2023-06-14T04:02:06;2.30;;;2.20;;
37931;SDS011;23758;42.640;23.302;2023-06-14T04:04:32;2.03;;;1.92;;
37931;SDS011;23758;42.640;23.302;2023-06-14T04:06:57;2.40;;;2.20;;
37931;SDS011;23758;42.640;23.302;2023-06-14T04:09:25;2.13;;;2.03;;
37931;SDS011;23758;42.640;23.302;2023-06-14T04:11:54;2.10;;;2.00;;
37931;SDS011;23758;42.640;23.302;2023-06-14T04:14:20;2.10;;;2.00;;
37931;SDS011;23758;42.640;23.302;2023-06-14T04:16:46;2.10;;;2.00;;
37931;SDS011;23758;42.640;23.302;2023-06-14T04:19:12;2.10;;;2.00;;
37931;SDS011;23758;42.640;23.302;2023-06-14T04:21:37;2.30;;;2.20;;
37931;SDS011;23758;42.640;23.302;2023-06-14T04:24:03;1.90;;;1.80;;
37931;SDS011;23758;42.640;23.302;2023-06-14T04:26:29;1.95;;;1.85;;
37931;SDS011;23758;42.640;23.302;2023-06-14T04:28:58;2.00;;;1.90;;
37931;SDS011;23758;42.640;23.302;2023-06-14T04:31:28;1.95;;;1.85;;
37931;SDS011;23758;42.640;23.302;2023-06-14T04:33:54;2.00;;;1.90;;
37931;SDS011;23758;42.640;23.302;2023-06-14T04:36:20;1.92;;;1.83;;
37931;SDS011;23758;42.640;23.302;2023-06-14T04:38:46;1.95;;;1.85;;
37931;SDS011;23758;42.640;23.302;2023-06-14T04:41:12;1.70;;;1.60;;
37931;SDS011;23758;42.640;23.302;2023-06-14T04:43:37;2.00;;;1.90;;
37931;SDS011;23758;42.640;23.302;2023-06-14T04:46:04;1.70;;;1.60;;
37931;SDS011;23758;42.640;23.302;2023-06-14T04:48:30;1.85;;;1.75;;
37931;SDS011;23758;42.640;23.302;2023-06-14T04:50:57;1.40;;;1.30;;
37931;SDS011;23758;42.640;23.302;2023-06-14T04:53:22;1.50;;;1.40;;
37931;SDS011;23758;42.640;23.302;2023-06-14T04:55:48;1.40;;;1.30;;
37931;SDS011;23758;42.640;23.302;2023-06-14T04:58:15;1.50;;;1.40;;
37931;SDS011;23758;42.640;23.302;2023-06-14T05:00:41;1.10;;;1.10;;
37931;SDS011;23758;42.640;23.302;2023-06-14T05:03:08;1.20;;;1.20;;
37931;SDS011;23758;42.640;23.302;2023-06-14T05:05:34;1.60;;;1.50;;
37931;SDS011;23758;42.640;23.302;2023-06-14T05:07:59;1.52;;;1.42;;
37931;SDS011;23758;42.640;23.302;2023-06-14T05:10:25;1.40;;;1.30;;
37931;SDS011;23758;42.640;23.302;2023-06-14T05:12:51;1.65;;;1.55;;
37931;SDS011;23758;42.640;23.302;2023-06-14T05:15:17;1.70;;;1.60;;
37931;SDS011;23758;42.640;23.302;2023-06-14T05:17:45;1.67;;;1.58;;
37931;SDS011;23758;42.640;23.302;2023-06-14T05:20:18;1.70;;;1.60;;
37931;SDS011;23758;42.640;23.302;2023-06-14T05:22:43;1.80;;;1.70;;
37931;SDS011;23758;42.640;23.302;2023-06-14T05:25:09;1.60;;;1.50;;
37931;SDS011;23758;42.640;23.302;2023-06-14T05:27:34;1.60;;;1.50;;
37931;SDS011;23758;42.640;23.302;2023-06-14T05:30:02;1.60;;;1.50;;
37931;SDS011;23758;42.640;23.302;2023-06-14T05:32:29;1.60;;;1.50;;
37931;SDS011;23758;42.640;23.302;2023-06-14T05:34:54;1.70;;;1.60;;
37931;SDS011;23758;42.640;23.302;2023-06-14T05:37:20;1.60;;;1.50;;
37931;SDS011;23758;42.640;23.302;2023-06-14T05:39:45;1.50;;;1.40;;
37931;SDS011;23758;42.640;23.302;2023-06-14T05:42:11;1.50;;;1.40;;
37931;SDS011;23758;42.640;23.302;2023-06-14T05:44:36;5.95;;;2.55;;
37931;SDS011;23758;42.640;23.302;2023-06-14T05:47:02;1.40;;;1.30;;
37931;SDS011;23758;42.640;23.302;2023-06-14T05:49:27;1.67;;;1.58;;
37931;SDS011;23758;42.640;23.302;2023-06-14T05:51:53;1.40;;;1.30;;
37931;SDS011;23758;42.640;23.302;2023-06-14T05:54:18;1.60;;;1.50;;
37931;SDS011;23758;42.640;23.302;2023-06-14T05:56:44;1.60;;;1.50;;
37931;SDS011;23758;42.640;23.302;2023-06-14T05:59:09;1.40;;;1.30;;
37931;SDS011;23758;42.640;23.302;2023-06-14T06:01:35;1.65;;;1.55;;
37931;SDS011;23758;42.640;23.302;2023-06-14T06:04:01;1.70;;;1.60;;
37931;SDS011;23758;42.640;23.302;2023-06-14T06:06:27;1.80;;;1.70;;
37931;SDS011;23758;42.640;23.302;2023-06-14T06:08:53;1.60;;;1.50;;
37931;SDS011;23758;42.640;23.302;2023-06-14T06:11:18;1.70;;;1.60;;
37931;SDS011;23758;42.640;23.302;2023-06-14T06:13:44;2.03;;;1.92;;
37931;SDS011;23758;42.640;23.302;2023-06-14T06:16:09;1.70;;;1.60;;
37931;SDS011;23758;42.640;23.302;2023-06-14T06:18:35;1.83;;;1.73;;
37931;SDS011;23758;42.640;23.302;2023-06-14T06:21:01;1.88;;;1.77;;
37931;SDS011;23758;42.640;23.302;2023-06-14T06:23:28;1.75;;;1.65;;
37931;SDS011;23758;42.640;23.302;2023-06-14T06:25:54;1.80;;;1.70;;
37931;SDS011;23758;42.640;23.302;2023-06-14T06:28:19;1.60;;;1.50;;
37931;SDS011;23758;42.640;23.302;2023-06-14T06:30:45;1.80;;;1.70;;
37931;SDS011;23758;42.640;23.302;2023-06-14T06:33:11;1.67;;;1.58;;
37931;SDS011;23758;42.640;23.302;2023-06-14T06:35:37;2.20;;;2.10;;
37931;SDS011;23758;42.640;23.302;2023-06-14T06:38:02;1.77;;;1.67;;
37931;SDS011;23758;42.640;23.302;2023-06-14T06:40:28;1.70;;;1.60;;
37931;SDS011;23758;42.640;23.302;2023-06-14T06:42:53;1.60;;;1.50;;
37931;SDS011;23758;42.640;23.302;2023-06-14T06:45:19;1.65;;;1.55;;
37931;SDS011;23758;42.640;23.302;2023-06-14T06:47:45;1.65;;;1.55;;
37931;SDS011;23758;42.640;23.302;2023-06-14T06:50:10;1.80;;;1.67;;
37931;SDS011;23758;42.640;23.302;2023-06-14T06:52:36;1.58;;;1.48;;
37931;SDS011;23758;42.640;23.302;2023-06-14T06:55:01;1.60;;;1.50;;
37931;SDS011;23758;42.640;23.302;2023-06-14T06:57:27;2.75;;;1.98;;
37931;SDS011;23758;42.640;23.302;2023-06-14T06:59:54;2.00;;;1.90;;
37931;SDS011;23758;42.640;23.302;2023-06-14T07:02:19;2.47;;;2.28;;
37931;SDS011;23758;42.640;23.302;2023-06-14T07:04:45;2.10;;;2.00;;
37931;SDS011;23758;42.640;23.302;2023-06-14T07:07:10;2.20;;;2.10;;
37931;SDS011;23758;42.640;23.302;2023-06-14T07:09:36;2.20;;;2.10;;
37931;SDS011;23758;42.640;23.302;2023-06-14T07:12:01;2.25;;;2.10;;
37931;SDS011;23758;42.640;23.302;2023-06-14T07:14:27;2.40;;;2.25;;
37931;SDS011;23758;42.640;23.302;2023-06-14T07:16:52;1.80;;;1.70;;
37931;SDS011;23758;42.640;23.302;2023-06-14T07:19:18;2.13;;;2.03;;
37931;SDS011;23758;42.640;23.302;2023-06-14T07:21:44;2.22;;;2.03;;
37931;SDS011;23758;42.640;23.302;2023-06-14T07:24:09;2.05;;;1.88;;
37931;SDS011;23758;42.640;23.302;2023-06-14T07:26:35;1.83;;;1.73;;
37931;SDS011;23758;42.640;23.302;2023-06-14T07:29:01;1.70;;;1.60;;
37931;SDS011;23758;42.640;23.302;2023-06-14T07:31:27;2.50;;;2.30;;
37931;SDS011;23758;42.640;23.302;2023-06-14T07:33:53;1.60;;;1.50;;
37931;SDS011;23758;42.640;23.302;2023-06-14T07:36:18;1.50;;;1.40;;
37931;SDS011;23758;42.640;23.302;2023-06-14T07:38:44;1.77;;;1.67;;
37931;SDS011;23758;42.640;23.302;2023-06-14T07:41:10;1.50;;;1.40;;
37931;SDS011;23758;42.640;23.302;2023-06-14T07:43:35;1.80;;;1.70;;
37931;SDS011;23758;42.640;23.302;2023-06-14T07:46:01;1.50;;;1.40;;
37931;SDS011;23758;42.640;23.302;2023-06-14T07:48:27;1.45;;;1.35;;
37931;SDS011;23758;42.640;23.302;2023-06-14T07:50:52;1.40;;;1.30;;
37931;SDS011;23758;42.640;23.302;2023-06-14T07:53:18;1.50;;;1.40;;
37931;SDS011;23758;42.640;23.302;2023-06-14T07:55:43;1.70;;;1.60;;
37931;SDS011;23758;42.640;23.302;2023-06-14T07:58:09;1.45;;;1.35;;
37931;SDS011;23758;42.640;23.302;2023-06-14T08:00:35;1.50;;;1.40;;
37931;SDS011;23758;42.640;23.302;2023-06-14T08:03:01;1.77;;;1.60;;
37931;SDS011;23758;42.640;23.302;2023-06-14T08:05:27;1.60;;;1.50;;
37931;SDS011;23758;42.640;23.302;2023-06-14T08:07:52;1.80;;;1.70;;
37931;SDS011;23758;42.640;23.302;2023-06-14T08:10:18;1.90;;;1.80;;
37931;SDS011;23758;42.640;23.302;2023-06-14T08:12:44;1.90;;;1.80;;
37931;SDS011;23758;42.640;23.302;2023-06-14T08:15:09;1.80;;;1.70;;
37931;SDS011;23758;42.640;23.302;2023-06-14T08:17:35;2.17;;;2.00;;
37931;SDS011;23758;42.640;23.302;2023-06-14T08:20:01;2.03;;;1.92;;
37931;SDS011;23758;42.640;23.302;2023-06-14T08:22:29;1.80;;;1.70;;
37931;SDS011;23758;42.640;23.302;2023-06-14T08:24:57;1.85;;;1.75;;
37931;SDS011;23758;42.640;23.302;2023-06-14T08:27:23;2.42;;;2.03;;
37931;SDS011;23758;42.640;23.302;2023-06-14T08:29:48;1.90;;;1.80;;
37931;SDS011;23758;42.640;23.302;2023-06-14T08:32:14;1.70;;;1.60;;
37931;SDS011;23758;42.640;23.302;2023-06-14T08:34:39;1.73;;;1.63;;
37931;SDS011;23758;42.640;23.302;2023-06-14T08:37:05;1.65;;;1.55;;
37931;SDS011;23758;42.640;23.302;2023-06-14T08:39:31;1.80;;;1.70;;
37931;SDS011;23758;42.640;23.302;2023-06-14T08:41:57;2.05;;;1.95;;
37931;SDS011;23758;42.640;23.302;2023-06-14T08:44:22;1.90;;;1.80;;
37931;SDS011;23758;42.640;23.302;2023-06-14T08:46:48;1.95;;;1.85;;
37931;SDS011;23758;42.640;23.302;2023-06-14T08:49:14;2.28;;;2.08;;
37931;SDS011;23758;42.640;23.302;2023-06-14T08:51:41;2.17;;;2.08;;
37931;SDS011;23758;42.640;23.302;2023-06-14T08:54:08;2.80;;;2.60;;
37931;SDS011;23758;42.640;23.302;2023-06-14T08:56:36;2.83;;;2.63;;
37931;SDS011;23758;42.640;23.302;2023-06-14T08:59:03;2.72;;;2.53;;
37931;SDS011;23758;42.640;23.302;2023-06-14T09:01:32;2.60;;;2.40;;
37931;SDS011;23758;42.640;23.302;2023-06-14T09:03:59;1.90;;;1.80;;
37931;SDS011;23758;42.640;23.302;2023-06-14T09:06:24;1.80;;;1.70;;
37931;SDS011;23758;42.640;23.302;2023-06-14T09:08:50;1.70;;;1.60;;
37931;SDS011;23758;42.640;23.302;2023-06-14T09:11:16;2.42;;;2.22;;
37931;SDS011;23758;42.640;23.302;2023-06-14T09:13:44;1.50;;;1.40;;
37931;SDS011;23758;42.640;23.302;2023-06-14T09:16:13;1.70;;;1.60;;
37931;SDS011;23758;42.640;23.302;2023-06-14T09:18:39;2.25;;;1.75;;
37931;SDS011;23758;42.640;23.302;2023-06-14T09:21:09;2.70;;;1.80;;
37931;SDS011;23758;42.640;23.302;2023-06-14T09:23:39;2.00;;;1.90;;
37931;SDS011;23758;42.640;23.302;2023-06-14T09:26:11;1.60;;;1.50;;
37931;SDS011;23758;42.640;23.302;2023-06-14T09:28:45;2.17;;;1.98;;
37931;SDS011;23758;42.640;23.302;2023-06-14T09:31:12;4.85;;;2.35;;
37931;SDS011;23758;42.640;23.302;2023-06-14T09:33:40;1.80;;;1.70;;
37931;SDS011;23758;42.640;23.302;2023-06-14T09:36:11;1.90;;;1.65;;
37931;SDS011;23758;42.640;23.302;2023-06-14T09:38:39;1.73;;;1.63;;
37931;SDS011;23758;42.640;23.302;2023-06-14T09:41:05;2.00;;;1.90;;
37931;SDS011;23758;42.640;23.302;2023-06-14T09:43:31;1.70;;;1.60;;
37931;SDS011;23758;42.640;23.302;2023-06-14T09:45:59;1.50;;;1.40;;
37931;SDS011;23758;42.640;23.302;2023-06-14T09:48:25;2.15;;;1.98;;
37931;SDS011;23758;42.640;23.302;2023-06-14T09:50:51;1.90;;;1.70;;
37931;SDS011;23758;42.640;23.302;2023-06-14T09:53:17;1.45;;;1.35;;
37931;SDS011;23758;42.640;23.302;2023-06-14T09:55:46;4.88;;;1.70;;
37931;SDS011;23758;42.640;23.302;2023-06-14T09:58:12;1.48;;;1.38;;
37931;SDS011;23758;42.640;23.302;2023-06-14T10:00:39;1.65;;;1.50;;
37931;SDS011;23758;42.640;23.302;2023-06-14T10:03:06;1.77;;;1.67;;
37931;SDS011;23758;42.640;23.302;2023-06-14T10:05:37;1.75;;;1.65;;
37931;SDS011;23758;42.640;23.302;2023-06-14T10:08:07;1.65;;;1.55;;
37931;SDS011;23758;42.640;23.302;2023-06-14T10:10:34;1.50;;;1.40;;
37931;SDS011;23758;42.640;23.302;2023-06-14T10:12:59;1.60;;;1.50;;
37931;SDS011;23758;42.640;23.302;2023-06-14T10:15:32;1.67;;;1.58;;
37931;SDS011;23758;42.640;23.302;2023-06-14T10:20:37;2.00;;;1.80;;
37931;SDS011;23758;42.640;23.302;2023-06-14T10:25:33;6.13;;;1.95;;
37931;SDS011;23758;42.640;23.302;2023-06-14T10:28:19;2.05;;;1.95;;
37931;SDS011;23758;42.640;23.302;2023-06-14T10:33:36;1.70;;;1.60;;
37931;SDS011;23758;42.640;23.302;2023-06-14T10:38:33;1.60;;;1.50;;
37931;SDS011;23758;42.640;23.302;2023-06-14T10:40:59;1.60;;;1.50;;
37931;SDS011;23758;42.640;23.302;2023-06-14T10:43:25;1.45;;;1.35;;
37931;SDS011;23758;42.640;23.302;2023-06-14T10:48:43;3.07;;;1.70;;
37931;SDS011;23758;42.640;23.302;2023-06-14T10:51:18;1.50;;;1.40;;
37931;SDS011;23758;42.640;23.302;2023-06-14T10:53:45;1.80;;;1.70;;
37931;SDS011;23758;42.640;23.302;2023-06-14T10:56:24;1.50;;;1.40;;
37931;SDS011;23758;42.640;23.302;2023-06-14T10:58:50;1.58;;;1.48;;
37931;SDS011;23758;42.640;23.302;2023-06-14T11:01:18;1.50;;;1.40;;
37931;SDS011;23758;42.640;23.302;2023-06-14T11:04:06;1.95;;;1.85;;
37931;SDS011;23758;42.640;23.302;2023-06-14T11:06:50;1.77;;;1.67;;
37931;SDS011;23758;42.640;23.302;2023-06-14T11:09:21;1.67;;;1.58;;
37931;SDS011;23758;42.640;23.302;2023-06-14T11:11:48;1.10;;;1.10;;
37931;SDS011;23758;42.640;23.302;2023-06-14T11:14:14;1.58;;;1.48;;
37931;SDS011;23758;42.640;23.302;2023-06-14T11:16:39;1.98;;;1.52;;
37931;SDS011;23758;42.640;23.302;2023-06-14T11:19:05;1.60;;;1.50;;
37931;SDS011;23758;42.640;23.302;2023-06-14T11:21:34;1.85;;;1.75;;
37931;SDS011;23758;42.640;23.302;2023-06-14T11:23:59;1.55;;;1.45;;
37931;SDS011;23758;42.640;23.302;2023-06-14T11:26:29;1.77;;;1.38;;
37931;SDS011;23758;42.640;23.302;2023-06-14T11:28:58;2.33;;;1.55;;
37931;SDS011;23758;42.640;23.302;2023-06-14T11:31:25;1.67;;;1.58;;
37931;SDS011;23758;42.640;23.302;2023-06-14T11:33:53;2.33;;;1.30;;
37931;SDS011;23758;42.640;23.302;2023-06-14T11:36:22;1.40;;;1.30;;
37931;SDS011;23758;42.640;23.302;2023-06-14T11:38:49;1.45;;;1.35;;
37931;SDS011;23758;42.640;23.302;2023-06-14T11:41:14;1.63;;;1.50;;
37931;SDS011;23758;42.640;23.302;2023-06-14T11:43:40;2.25;;;1.67;;
37931;SDS011;23758;42.640;23.302;2023-06-14T11:46:11;1.85;;;1.63;;
37931;SDS011;23758;42.640;23.302;2023-06-14T11:48:40;1.20;;;1.20;;
37931;SDS011;23758;42.640;23.302;2023-06-14T11:51:07;1.40;;;1.30;;
37931;SDS011;23758;42.640;23.302;2023-06-14T11:53:32;1.88;;;1.77;;
37931;SDS011;23758;42.640;23.302;2023-06-14T11:55:58;1.60;;;1.50;;
37931;SDS011;23758;42.640;23.302;2023-06-14T11:58:25;1.35;;;1.27;;
37931;SDS011;23758;42.640;23.302;2023-06-14T12:00:51;1.40;;;1.30;;
37931;SDS011;23758;42.640;23.302;2023-06-14T12:03:17;1.63;;;1.52;;
37931;SDS011;23758;42.640;23.302;2023-06-14T12:05:43;1.67;;;1.58;;
37931;SDS011;23758;42.640;23.302;2023-06-14T12:08:08;1.58;;;1.48;;
37931;SDS011;23758;42.640;23.302;2023-06-14T12:10:41;1.73;;;1.63;;
37931;SDS011;23758;42.640;23.302;2023-06-14T12:13:09;1.55;;;1.45;;
37931;SDS011;23758;42.640;23.302;2023-06-14T12:15:35;1.65;;;1.48;;
37931;SDS011;23758;42.640;23.302;2023-06-14T12:18:04;1.75;;;1.60;;
37931;SDS011;23758;42.640;23.302;2023-06-14T12:20:32;1.42;;;1.33;;
37931;SDS011;23758;42.640;23.302;2023-06-14T12:23:02;1.70;;;1.60;;
37931;SDS011;23758;42.640;23.302;2023-06-14T12:27:57;1.40;;;1.30;;
37931;SDS011;23758;42.640;23.302;2023-06-14T12:30:23;1.40;;;1.30;;
37931;SDS011;23758;42.640;23.302;2023-06-14T12:32:49;1.48;;;1.38;;
37931;SDS011;23758;42.640;23.302;2023-06-14T12:35:16;1.50;;;1.40;;
37931;SDS011;23758;42.640;23.302;2023-06-14T12:37:42;1.88;;;1.75;;
37931;SDS011;23758;42.640;23.302;2023-06-14T12:40:08;1.60;;;1.50;;
37931;SDS011;23758;42.640;23.302;2023-06-14T12:42:33;1.55;;;1.45;;
37931;SDS011;23758;42.640;23.302;2023-06-14T12:45:00;1.60;;;1.50;;
37931;SDS011;23758;42.640;23.302;2023-06-14T12:47:25;1.70;;;1.60;;
37931;SDS011;23758;42.640;23.302;2023-06-14T12:49:51;1.60;;;1.50;;
37931;SDS011;23758;42.640;23.302;2023-06-14T12:52:17;1.73;;;1.63;;
37931;SDS011;23758;42.640;23.302;2023-06-14T12:54:42;1.92;;;1.83;;
37931;SDS011;23758;42.640;23.302;2023-06-14T12:57:08;1.70;;;1.60;;
37931;SDS011;23758;42.640;23.302;2023-06-14T12:59:34;1.80;;;1.70;;
37931;SDS011;23758;42.640;23.302;2023-06-14T13:02:10;1.67;;;1.58;;
37931;SDS011;23758;42.640;23.302;2023-06-14T13:04:38;1.63;;;1.52;;
37931;SDS011;23758;42.640;23.302;2023-06-14T13:07:04;2.13;;;1.92;;
37931;SDS011;23758;42.640;23.302;2023-06-14T13:09:30;1.73;;;1.63;;
37931;SDS011;23758;42.640;23.302;2023-06-14T13:11:56;1.88;;;1.77;;
37931;SDS011;23758;42.640;23.302;2023-06-14T13:14:21;1.80;;;1.70;;
37931;SDS011;23758;42.640;23.302;2023-06-14T13:16:47;2.65;;;2.15;;
37931;SDS011;23758;42.640;23.302;2023-06-14T13:19:12;2.05;;;1.95;;
37931;SDS011;23758;42.640;23.302;2023-06-14T13:21:37;1.90;;;1.80;;
37931;SDS011;23758;42.640;23.302;2023-06-14T13:24:03;2.72;;;2.53;;
37931;SDS011;23758;42.640;23.302;2023-06-14T13:26:29;2.42;;;2.22;;
37931;SDS011;23758;42.640;23.302;2023-06-14T13:28:55;2.47;;;2.22;;
37931;SDS011;23758;42.640;23.302;2023-06-14T13:31:20;2.67;;;2.47;;
37931;SDS011;23758;42.640;23.302;2023-06-14T13:33:45;2.20;;;2.10;;
37931;SDS011;23758;42.640;23.302;2023-06-14T13:36:11;2.13;;;2.03;;
37931;SDS011;23758;42.640;23.302;2023-06-14T13:38:36;2.35;;;2.22;;
37931;SDS011;23758;42.640;23.302;2023-06-14T13:41:02;2.78;;;2.58;;
37931;SDS011;23758;42.640;23.302;2023-06-14T13:43:27;2.10;;;2.00;;
37931;SDS011;23758;42.640;23.302;2023-06-14T13:45:53;2.67;;;2.47;;
37931;SDS011;23758;42.640;23.302;2023-06-14T13:48:19;2.20;;;2.10;;
37931;SDS011;23758;42.640;23.302;2023-06-14T13:50:44;2.20;;;2.10;;
37931;SDS011;23758;42.640;23.302;2023-06-14T13:53:11;2.30;;;2.20;;
37931;SDS011;23758;42.640;23.302;2023-06-14T13:55:36;2.17;;;2.08;;
37931;SDS011;23758;42.640;23.302;2023-06-14T13:58:02;2.25;;;2.15;;
37931;SDS011;23758;42.640;23.302;2023-06-14T14:00:27;2.25;;;2.15;;
37931;SDS011;23758;42.640;23.302;2023-06-14T14:02:53;2.10;;;2.00;;
37931;SDS011;23758;42.640;23.302;2023-06-14T14:05:19;1.98;;;1.88;;
37931;SDS011;23758;42.640;23.302;2023-06-14T14:07:45;2.10;;;2.00;;
37931;SDS011;23758;42.640;23.302;2023-06-14T14:10:11;2.00;;;1.90;;
37931;SDS011;23758;42.640;23.302;2023-06-14T14:12:38;2.20;;;2.10;;
37931;SDS011;23758;42.640;23.302;2023-06-14T14:15:04;2.10;;;2.00;;
37931;SDS011;23758;42.640;23.302;2023-06-14T14:17:32;2.28;;;2.17;;
37931;SDS011;23758;42.640;23.302;2023-06-14T14:19:58;2.20;;;2.10;;
37931;SDS011;23758;42.640;23.302;2023-06-14T14:22:23;2.10;;;2.00;;
37931;SDS011;23758;42.640;23.302;2023-06-14T14:24:49;2.20;;;2.10;;
37931;SDS011;23758;42.640;23.302;2023-06-14T14:27:15;2.20;;;2.10;;
37931;SDS011;23758;42.640;23.302;2023-06-14T14:29:40;2.30;;;2.20;;
37931;SDS011;23758;42.640;23.302;2023-06-14T14:32:06;2.85;;;2.65;;
37931;SDS011;23758;42.640;23.302;2023-06-14T14:34:32;2.35;;;2.25;;
37931;SDS011;23758;42.640;23.302;2023-06-14T14:36:57;2.20;;;2.10;;
37931;SDS011;23758;42.640;23.302;2023-06-14T14:39:22;2.10;;;2.00;;
37931;SDS011;23758;42.640;23.302;2023-06-14T14:41:48;2.25;;;2.15;;
37931;SDS011;23758;42.640;23.302;2023-06-14T14:44:15;2.22;;;2.13;;
37931;SDS011;23758;42.640;23.302;2023-06-14T14:46:40;2.30;;;2.20;;
37931;SDS011;23758;42.640;23.302;2023-06-14T14:49:06;2.30;;;2.13;;